createdAt,value
2019-01-28T00:01:36.469Z,98216.63
2019-01-28T00:04:04.823Z,98226.14
2019-01-28T00:06:33.102Z,98230.89
2019-01-28T00:09:01.354Z,98231.55
2019-01-28T00:11:29.646Z,98228.05
2019-01-28T00:13:57.898Z,98234.20
2019-01-28T00:16:26.175Z,98237.48
2019-01-28T00:18:54.471Z,98232.13
2019-01-28T00:21:22.696Z,98239.84
2019-01-28T00:23:50.961Z,98234.59
2019-01-28T00:26:19.209Z,98237.07
2019-01-28T00:28:47.480Z,98237.14
2019-01-28T00:31:15.724Z,98240.38
2019-01-28T00:33:44.556Z,98242.04
2019-01-28T00:36:12.796Z,98246.52
2019-01-28T00:38:41.045Z,98243.11
2019-01-28T00:41:09.324Z,98247.57
2019-01-28T00:43:37.588Z,98251.55
2019-01-28T00:46:05.848Z,98248.77
2019-01-28T00:48:34.130Z,98252.47
2019-01-28T00:51:02.400Z,98246.94
2019-01-28T00:53:30.669Z,98249.52
2019-01-28T00:55:58.951Z,98255.15
2019-01-28T00:58:27.199Z,98256.08
2019-01-28T01:00:55.458Z,98255.70
2019-01-28T01:03:23.724Z,98247.42
2019-01-28T01:05:51.959Z,98245.94
2019-01-28T01:08:20.216Z,98254.40
2019-01-28T01:10:48.485Z,98261.67
2019-01-28T01:13:16.732Z,98258.88
2019-01-28T01:15:45.014Z,98263.20
2019-01-28T01:18:13.281Z,98263.06
2019-01-28T01:20:41.595Z,98269.08
2019-01-28T01:23:09.872Z,98270.73
2019-01-28T01:25:38.142Z,98275.70
2019-01-28T01:28:06.405Z,98273.48
2019-01-28T01:30:34.724Z,98274.36
2019-01-28T01:33:03.007Z,98276.63
2019-01-28T01:35:31.272Z,98275.70
2019-01-28T01:37:59.560Z,98275.66
2019-01-28T01:40:27.845Z,98283.81
2019-01-28T01:42:56.136Z,98284.20
2019-01-28T01:45:24.406Z,98282.72
2019-01-28T01:47:52.669Z,98285.84
2019-01-28T01:50:21.219Z,98285.25
2019-01-28T01:52:49.470Z,98288.98
2019-01-28T01:55:17.738Z,98288.70
2019-01-28T01:57:46.012Z,98290.41
2019-01-28T02:00:16.320Z,98291.39
2019-01-28T02:02:44.585Z,98295.11
2019-01-28T02:05:12.921Z,98288.20
2019-01-28T02:07:41.199Z,98293.59
2019-01-28T02:10:14.036Z,98295.06
2019-01-28T02:12:42.385Z,98293.14
2019-01-28T02:15:15.841Z,98301.41
2019-01-28T02:17:44.108Z,98301.49
2019-01-28T02:20:12.534Z,98293.98
2019-01-28T02:22:40.794Z,98306.05
2019-01-28T02:25:11.882Z,98298.08
2019-01-28T02:27:40.149Z,98301.96
2019-01-28T02:30:14.255Z,98304.54
2019-01-28T02:32:42.503Z,98303.61
2019-01-28T02:35:10.909Z,98303.98
2019-01-28T02:37:39.195Z,98300.02
2019-01-28T02:40:15.378Z,98309.56
2019-01-28T02:42:43.653Z,98306.16
2019-01-28T02:45:13.749Z,98308.91
2019-01-28T02:47:42.032Z,98309.19
2019-01-28T02:50:17.274Z,98313.89
2019-01-28T02:52:45.981Z,98312.04
2019-01-28T02:55:15.283Z,98306.97
2019-01-28T02:57:43.538Z,98313.42
2019-01-28T03:00:17.889Z,98305.27
2019-01-28T03:02:46.394Z,98313.53
2019-01-28T03:05:15.390Z,98308.31
2019-01-28T03:07:43.660Z,98309.51
2019-01-28T03:10:19.923Z,98309.52
2019-01-28T03:12:48.271Z,98309.80
2019-01-28T03:15:17.368Z,98305.64
2019-01-28T03:17:45.698Z,98314.31
2019-01-28T03:20:15.833Z,98307.30
2019-01-28T03:22:44.069Z,98309.34
2019-01-28T03:25:14.564Z,98315.97
2019-01-28T03:27:42.827Z,98311.27
2019-01-28T03:30:13.816Z,98315.08
2019-01-28T03:32:42.111Z,98315.73
2019-01-28T03:35:10.666Z,98317.48
2019-01-28T03:37:38.934Z,98318.09
2019-01-28T03:40:10.362Z,98314.53
2019-01-28T03:42:39.710Z,98317.81
2019-01-28T03:45:11.226Z,98313.95
2019-01-28T03:47:41.661Z,98320.98
2019-01-28T03:50:12.902Z,98320.40
2019-01-28T03:52:41.262Z,98320.24
2019-01-28T03:55:11.399Z,98315.27
2019-01-28T03:57:39.757Z,98310.44
2019-01-28T04:00:24.907Z,98319.14
2019-01-28T04:02:53.198Z,98311.95
2019-01-28T04:05:22.238Z,98317.76
2019-01-28T04:07:50.559Z,98313.61
2019-01-28T04:10:23.635Z,98311.40
2019-01-28T04:12:52.599Z,98307.63
2019-01-28T04:15:23.431Z,98311.67
2019-01-28T04:17:51.756Z,98300.16
2019-01-28T04:20:21.169Z,98298.50
2019-01-28T04:22:49.769Z,98304.21
2019-01-28T04:25:18.123Z,98298.12
2019-01-28T04:27:46.393Z,98296.47
2019-01-28T04:30:17.830Z,98300.06
2019-01-28T04:32:46.129Z,98299.88
2019-01-28T04:35:14.385Z,98312.32
2019-01-28T04:37:42.671Z,98301.17
2019-01-28T04:40:12.980Z,98298.04
2019-01-28T04:42:41.338Z,98307.53
2019-01-28T04:45:12.147Z,98307.16
2019-01-28T04:47:40.433Z,98310.30
2019-01-28T04:50:16.696Z,98302.27
2019-01-28T04:52:45.028Z,98296.84
2019-01-28T04:55:14.427Z,98299.23
2019-01-28T04:57:42.758Z,98306.42
2019-01-28T05:00:13.984Z,98298.31
2019-01-28T05:02:42.245Z,98303.11
2019-01-28T05:05:10.596Z,98305.78
2019-01-28T05:07:38.858Z,98312.14
2019-01-28T05:10:10.058Z,98311.22
2019-01-28T05:12:38.330Z,98310.30
2019-01-28T05:15:09.053Z,98305.87
2019-01-28T05:17:37.348Z,98308.45
2019-01-28T05:20:14.265Z,98307.90
2019-01-28T05:22:42.568Z,98312.50
2019-01-28T05:25:12.979Z,98314.16
2019-01-28T05:27:41.250Z,98312.32
2019-01-28T05:30:23.782Z,98311.67
2019-01-28T05:32:52.681Z,98308.36
2019-01-28T05:35:22.399Z,98311.95
2019-01-28T05:37:50.836Z,98310.08
2019-01-28T05:40:25.789Z,98312.50
2019-01-28T05:42:54.049Z,98311.03
2019-01-28T05:45:24.257Z,98308.94
2019-01-28T05:47:52.560Z,98312.35
2019-01-28T05:50:20.877Z,98313.80
2019-01-28T05:52:49.208Z,98313.80
2019-01-28T05:55:18.799Z,98315.91
2019-01-28T05:57:47.325Z,98313.42
2019-01-28T06:00:25.322Z,98313.55
2019-01-28T06:02:53.697Z,98308.66
2019-01-28T06:05:22.047Z,98314.47
2019-01-28T06:07:52.007Z,98313.73
2019-01-28T06:10:20.801Z,98319.25
2019-01-28T06:12:49.101Z,98317.05
2019-01-28T06:15:18.723Z,98319.53
2019-01-28T06:17:47.198Z,98321.19
2019-01-28T06:20:25.887Z,98321.74
2019-01-28T06:22:54.158Z,98321.53
2019-01-28T06:25:23.460Z,98324.11
2019-01-28T06:27:51.733Z,98325.03
2019-01-28T06:30:28.399Z,98331.76
2019-01-28T06:32:56.718Z,98332.77
2019-01-28T06:35:25.075Z,98333.60
2019-01-28T06:37:53.415Z,98333.99
2019-01-28T06:40:32.717Z,98335.56
2019-01-28T06:43:01.036Z,98335.30
2019-01-28T06:45:29.457Z,98338.31
2019-01-28T06:47:57.801Z,98340.00
2019-01-28T06:50:26.167Z,98341.45
2019-01-28T06:53:03.326Z,98344.79
2019-01-28T06:55:31.628Z,98348.55
2019-01-28T06:57:59.916Z,98347.80
2019-01-28T07:00:30.159Z,98351.88
2019-01-28T07:02:58.679Z,98345.34
2019-01-28T07:05:27.130Z,98344.42
2019-01-28T07:07:55.399Z,98356.92
2019-01-28T07:10:23.714Z,98350.86
2019-01-28T07:12:51.986Z,98349.92
2019-01-28T07:15:22.101Z,98353.71
2019-01-28T07:17:54.917Z,98360.22
2019-01-28T07:20:24.228Z,98363.27
2019-01-28T07:22:52.718Z,98364.68
2019-01-28T07:25:21.845Z,98363.65
2019-01-28T07:27:50.155Z,98361.81
2019-01-28T07:30:27.052Z,98371.76
2019-01-28T07:32:55.523Z,98375.34
2019-01-28T07:35:23.833Z,98369.63
2019-01-28T07:37:52.192Z,98379.31
2019-01-28T07:40:22.062Z,98380.78
2019-01-28T07:42:50.375Z,98378.86
2019-01-28T07:45:24.394Z,98380.59
2019-01-28T07:47:52.732Z,98387.30
2019-01-28T07:50:22.735Z,98388.98
2019-01-28T07:52:51.026Z,98394.49
2019-01-28T07:55:19.286Z,98395.52
2019-01-28T07:57:47.581Z,98396.34
2019-01-28T08:00:19.559Z,98400.77
2019-01-28T08:02:47.929Z,98403.44
2019-01-28T08:05:17.552Z,98404.80
2019-01-28T08:07:45.823Z,98406.77
2019-01-28T08:10:16.217Z,98406.92
2019-01-28T08:12:44.484Z,98407.67
2019-01-28T08:15:15.195Z,98403.88
2019-01-28T08:17:43.619Z,98413.38
2019-01-28T08:20:16.857Z,98419.27
2019-01-28T08:22:45.192Z,98416.62
2019-01-28T08:25:15.514Z,98420.48
2019-01-28T08:27:43.793Z,98415.03
2019-01-28T08:30:26.347Z,98413.95
2019-01-28T08:32:55.164Z,98412.45
2019-01-28T08:35:24.068Z,98413.94
2019-01-28T08:37:52.336Z,98421.49
2019-01-28T08:40:21.651Z,98420.39
2019-01-28T08:42:49.943Z,98418.17
2019-01-28T08:45:18.204Z,98421.50
2019-01-28T08:47:46.470Z,98422.40
2019-01-28T08:50:17.914Z,98425.89
2019-01-28T08:52:46.203Z,98426.64
2019-01-28T08:55:17.171Z,98423.59
2019-01-28T08:57:45.439Z,98437.52
2019-01-28T09:00:19.392Z,98433.84
2019-01-28T09:02:47.673Z,98436.63
2019-01-28T09:05:17.115Z,98444.63
2019-01-28T09:07:45.389Z,98441.97
2019-01-28T09:10:16.695Z,98445.37
2019-01-28T09:12:45.056Z,98445.09
2019-01-28T09:15:20.953Z,98452.26
2019-01-28T09:17:49.266Z,98445.56
2019-01-28T09:20:20.175Z,98450.61
2019-01-28T09:22:48.448Z,98452.20
2019-01-28T09:25:17.136Z,98450.45
2019-01-28T09:27:45.414Z,98457.91
2019-01-28T09:30:26.052Z,98461.67
2019-01-28T09:32:54.345Z,98462.25
2019-01-28T09:35:22.619Z,98468.69
2019-01-28T09:37:50.974Z,98461.97
2019-01-28T09:40:21.585Z,98463.33
2019-01-28T09:42:49.904Z,98460.94
2019-01-28T09:45:20.508Z,98464.91
2019-01-28T09:47:48.854Z,98460.73
2019-01-28T09:50:17.886Z,98465.44
2019-01-28T09:52:46.477Z,98470.02
2019-01-28T09:55:15.100Z,98466.79
2019-01-28T09:57:43.468Z,98468.45
2019-01-28T10:00:26.779Z,98475.09
2019-01-28T10:02:55.200Z,98479.73
2019-01-28T10:05:23.532Z,98485.73
2019-01-28T10:07:51.808Z,98488.74
2019-01-28T10:10:20.710Z,98482.84
2019-01-28T10:12:49.053Z,98482.74
2019-01-28T10:15:28.724Z,98489.94
2019-01-28T10:17:55.644Z,98496.48
2019-01-28T10:20:35.410Z,98498.39
2019-01-28T10:23:05.168Z,98497.10
2019-01-28T10:25:33.425Z,98500.83
2019-01-28T10:28:01.682Z,98505.90
2019-01-28T10:30:32.198Z,98510.48
2019-01-28T10:33:00.582Z,98503.55
2019-01-28T10:35:30.128Z,98506.97
2019-01-28T10:37:58.560Z,98506.09
2019-01-28T10:40:32.106Z,98509.92
2019-01-28T10:43:00.440Z,98507.04
2019-01-28T10:45:28.707Z,98513.83
2019-01-28T10:48:00.608Z,98520.20
2019-01-28T10:50:27.983Z,98517.52
2019-01-28T10:52:56.405Z,98523.61
2019-01-28T10:55:25.926Z,98513.83
2019-01-28T10:57:54.456Z,98514.67
2019-01-28T11:00:34.454Z,98510.89
2019-01-28T11:03:02.898Z,98511.53
2019-01-28T11:05:31.154Z,98512.55
2019-01-28T11:07:59.431Z,98520.11
2019-01-28T11:10:28.752Z,98523.06
2019-01-28T11:12:57.331Z,98519.19
2019-01-28T11:15:30.042Z,98515.13
2019-01-28T11:18:00.891Z,98523.64
2019-01-28T11:20:29.365Z,98530.37
2019-01-28T11:22:57.646Z,98529.73
2019-01-28T11:25:31.103Z,98528.33
2019-01-28T11:27:59.513Z,98533.70
2019-01-28T11:30:46.627Z,98534.78
2019-01-28T11:33:15.299Z,98527.03
2019-01-28T11:35:43.792Z,98531.66
2019-01-28T11:38:12.700Z,98526.48
2019-01-28T11:40:41.188Z,98531.29
2019-01-28T11:43:09.536Z,98528.52
2019-01-28T11:45:41.014Z,98536.00
2019-01-28T11:48:09.258Z,98541.44
2019-01-28T11:50:37.508Z,98539.50
2019-01-28T11:53:05.971Z,98544.11
2019-01-28T11:55:34.305Z,98542.18
2019-01-28T11:58:02.615Z,98544.48
2019-01-28T12:00:41.101Z,98546.14
2019-01-28T12:03:09.373Z,98550.20
2019-01-28T12:05:37.633Z,98550.47
2019-01-28T12:08:06.501Z,98550.73
2019-01-28T12:10:34.769Z,98550.94
2019-01-28T12:13:03.254Z,98556.19
2019-01-28T12:15:31.548Z,98552.50
2019-01-28T12:17:59.832Z,98550.55
2019-01-28T12:20:28.115Z,98555.08
2019-01-28T12:22:56.372Z,98554.17
2019-01-28T12:25:24.680Z,98560.05
2019-01-28T12:27:52.954Z,98569.08
2019-01-28T12:30:29.241Z,98573.53
2019-01-28T12:32:57.493Z,98574.08
2019-01-28T12:35:25.794Z,98571.23
2019-01-28T12:37:54.067Z,98572.49
2019-01-28T12:40:23.371Z,98577.11
2019-01-28T12:42:52.663Z,98581.81
2019-01-28T12:45:28.574Z,98584.39
2019-01-28T12:47:58.508Z,98589.87
2019-01-28T12:50:27.086Z,98583.41
2019-01-28T12:52:55.340Z,98586.52
2019-01-28T12:55:25.939Z,98592.16
2019-01-28T12:57:54.278Z,98592.25
2019-01-28T13:00:26.239Z,98600.37
2019-01-28T13:02:54.508Z,98597.88
2019-01-28T13:05:24.138Z,98601.30
2019-01-28T13:07:52.404Z,98602.31
2019-01-28T13:10:25.086Z,98609.13
2019-01-28T13:12:53.304Z,98616.33
2019-01-28T13:15:30.578Z,98614.86
2019-01-28T13:17:58.837Z,98615.14
2019-01-28T13:20:27.375Z,98610.50
2019-01-28T13:22:55.640Z,98609.66
2019-01-28T13:25:28.970Z,98613.45
2019-01-28T13:27:57.322Z,98615.58
2019-01-28T13:30:37.130Z,98618.71
2019-01-28T13:33:07.797Z,98617.45
2019-01-28T13:35:36.055Z,98619.75
2019-01-28T13:38:04.324Z,98621.14
2019-01-28T13:40:32.600Z,98629.63
2019-01-28T13:43:00.853Z,98627.97
2019-01-28T13:45:29.144Z,98632.67
2019-01-28T13:47:57.694Z,98639.76
2019-01-28T13:50:26.237Z,98645.11
2019-01-28T13:52:54.689Z,98641.23
2019-01-28T13:55:23.522Z,98649.27
2019-01-28T13:57:51.786Z,98658.16
2019-01-28T14:00:23.253Z,98663.50
2019-01-28T14:02:51.536Z,98662.58
2019-01-28T14:05:19.792Z,98667.29
2019-01-28T14:07:48.120Z,98668.48
2019-01-28T14:10:18.313Z,98680.30
2019-01-28T14:12:46.578Z,98680.30
2019-01-28T14:15:23.702Z,98683.05
2019-01-28T14:17:52.046Z,98692.56
2019-01-28T14:20:22.933Z,98692.56
2019-01-28T14:22:51.229Z,98693.66
2019-01-28T14:25:19.510Z,98703.73
2019-01-28T14:27:50.021Z,98704.47
2019-01-28T14:30:26.766Z,98704.56
2019-01-28T14:32:55.036Z,98705.30
2019-01-28T14:35:23.300Z,98708.45
2019-01-28T14:37:51.573Z,98705.31
2019-01-28T14:40:22.603Z,98709.09
2019-01-28T14:42:50.872Z,98713.52
2019-01-28T14:45:19.153Z,98718.94
2019-01-28T14:47:47.424Z,98725.88
2019-01-28T14:50:21.443Z,98726.63
2019-01-28T14:52:49.700Z,98731.61
2019-01-28T14:55:18.043Z,98731.61
2019-01-28T14:57:46.301Z,98736.78
2019-01-28T15:00:20.158Z,98742.70
2019-01-28T15:02:48.440Z,98743.44
2019-01-28T15:05:16.690Z,98744.52
2019-01-28T15:07:44.995Z,98750.89
2019-01-28T15:10:16.244Z,98749.22
2019-01-28T15:12:47.739Z,98761.68
2019-01-28T15:15:37.038Z,98763.63
2019-01-28T15:18:06.459Z,98768.72
2019-01-28T15:20:34.735Z,98778.88
2019-01-28T15:23:03.002Z,98769.55
2019-01-28T15:25:31.276Z,98772.88
2019-01-28T15:27:59.550Z,98775.09
2019-01-28T15:30:29.433Z,98779.63
2019-01-28T15:32:58.215Z,98780.91
2019-01-28T15:35:26.570Z,98783.25
2019-01-28T15:37:54.852Z,98787.32
2019-01-28T15:40:25.819Z,98790.28
2019-01-28T15:42:54.087Z,98794.13
2019-01-28T15:45:31.099Z,98802.08
2019-01-28T15:47:59.401Z,98804.42
2019-01-28T15:50:27.636Z,98804.54
2019-01-28T15:52:55.910Z,98811.63
2019-01-28T15:55:29.719Z,98815.05
2019-01-28T15:57:57.983Z,98816.45
2019-01-28T16:00:28.381Z,98822.45
2019-01-28T16:02:56.711Z,98823.71
2019-01-28T16:05:24.984Z,98828.33
2019-01-28T16:07:53.517Z,98833.48
2019-01-28T16:10:21.793Z,98838.86
2019-01-28T16:12:50.046Z,98836.70
2019-01-28T16:15:21.474Z,98839.71
2019-01-28T16:17:49.740Z,98849.34
2019-01-28T16:20:18.594Z,98848.05
2019-01-28T16:22:47.191Z,98851.09
2019-01-28T16:25:15.519Z,98852.08
2019-01-28T16:27:44.044Z,98855.95
2019-01-28T16:30:26.416Z,98860.37
2019-01-28T16:32:51.666Z,98865.45
2019-01-28T16:35:21.167Z,98865.02
2019-01-28T16:37:50.986Z,98869.27
2019-01-28T16:40:21.600Z,98880.62
2019-01-28T16:42:50.649Z,98882.16
2019-01-28T16:45:19.394Z,98881.18
2019-01-28T16:47:47.728Z,98887.02
2019-01-28T16:50:26.718Z,98888.75
2019-01-28T16:52:51.670Z,98887.63
2019-01-28T16:55:19.939Z,98891.46
2019-01-28T16:57:48.270Z,98898.21
2019-01-28T17:00:19.699Z,98907.12
2019-01-28T17:02:48.019Z,98901.97
2019-01-28T17:05:16.351Z,98894.06
2019-01-28T17:07:44.716Z,98902.79
2019-01-28T17:10:14.558Z,98908.06
2019-01-28T17:12:42.813Z,98914.81
2019-01-28T17:15:13.909Z,98913.34
2019-01-28T17:17:42.177Z,98920.33
2019-01-28T17:20:19.042Z,98924.61
2019-01-28T17:22:47.308Z,98924.91
2019-01-28T17:25:18.760Z,98926.43
2019-01-28T17:27:47.213Z,98929.24
2019-01-28T17:30:32.639Z,98929.77
2019-01-28T17:33:00.976Z,98941.36
2019-01-28T17:35:29.250Z,98941.23
2019-01-28T17:37:57.769Z,98944.64
2019-01-28T17:40:28.379Z,98948.79
2019-01-28T17:42:56.656Z,98962.45
2019-01-28T17:45:25.867Z,98974.87
2019-01-28T17:47:54.143Z,98979.25
2019-01-28T17:50:24.568Z,98982.97
2019-01-28T17:52:52.408Z,98989.98
2019-01-28T17:55:20.665Z,98996.37
2019-01-28T17:57:49.390Z,98991.95
2019-01-28T18:00:29.622Z,99002.05
2019-01-28T18:02:58.297Z,99004.09
2019-01-28T18:05:26.626Z,99005.84
2019-01-28T18:07:54.907Z,99014.84
2019-01-28T18:10:23.192Z,99014.46
2019-01-28T18:12:51.468Z,99027.61
2019-01-28T18:15:21.683Z,99025.85
2019-01-28T18:17:50.072Z,99038.48
2019-01-28T18:20:18.604Z,99044.40
2019-01-28T18:22:47.614Z,99044.54
2019-01-28T18:25:24.982Z,99055.39
2019-01-28T18:27:53.350Z,99057.31
2019-01-28T18:30:28.833Z,99061.47
2019-01-28T18:32:57.182Z,99073.50
2019-01-28T18:35:25.700Z,99068.16
2019-01-28T18:37:53.985Z,99079.84
2019-01-28T18:40:22.263Z,99082.37
2019-01-28T18:42:50.621Z,99083.47
2019-01-28T18:45:19.939Z,99081.16
2019-01-28T18:47:48.545Z,99092.78
2019-01-28T18:50:18.567Z,99088.66
2019-01-28T18:52:47.192Z,99085.41
2019-01-28T18:55:17.814Z,99098.70
2019-01-28T18:57:46.076Z,99099.21
2019-01-28T19:00:19.568Z,99095.69
2019-01-28T19:02:47.821Z,99104.48
2019-01-28T19:05:18.122Z,99113.78
2019-01-28T19:07:48.695Z,99118.53
2019-01-28T19:10:22.562Z,99126.97
2019-01-28T19:12:52.459Z,99133.28
2019-01-28T19:15:25.011Z,99134.56
2019-01-28T19:18:00.872Z,99142.01
2019-01-28T19:20:30.815Z,99146.38
2019-01-28T19:22:59.115Z,99158.27
2019-01-28T19:25:27.363Z,99159.38
2019-01-28T19:27:55.640Z,99167.95
2019-01-28T19:30:23.907Z,99175.20
2019-01-28T19:32:52.165Z,99180.73
2019-01-28T19:35:20.677Z,99180.23
2019-01-28T19:37:48.928Z,99183.51
2019-01-28T19:40:18.860Z,99185.63
2019-01-28T19:42:47.187Z,99192.28
2019-01-28T19:45:17.797Z,99197.09
2019-01-28T19:47:46.184Z,99211.75
2019-01-28T19:50:17.810Z,99214.38
2019-01-28T19:52:46.802Z,99218.98
2019-01-28T19:55:16.528Z,99227.53
2019-01-28T19:57:44.594Z,99230.16
2019-01-28T20:00:26.090Z,99238.91
2019-01-28T20:02:54.805Z,99244.23
2019-01-28T20:05:24.287Z,99250.14
2019-01-28T20:07:52.803Z,99249.16
2019-01-28T20:10:21.695Z,99252.28
2019-01-28T20:12:49.974Z,99257.27
2019-01-28T20:15:20.365Z,99266.31
2019-01-28T20:17:52.404Z,99266.20
2019-01-28T20:20:21.975Z,99267.94
2019-01-28T20:22:50.258Z,99277.20
2019-01-28T20:25:19.285Z,99272.50
2019-01-28T20:27:47.571Z,99284.36
2019-01-28T20:30:23.995Z,99285.45
2019-01-28T20:33:00.327Z,99293.71
2019-01-28T20:35:30.108Z,99298.44
2019-01-28T20:38:01.726Z,99303.94
2019-01-28T20:40:29.998Z,99313.67
2019-01-28T20:42:58.302Z,99320.44
2019-01-28T20:45:27.357Z,99329.78
2019-01-28T20:47:58.185Z,99335.41
2019-01-28T20:50:33.880Z,99343.35
2019-01-28T20:53:02.188Z,99348.61
2019-01-28T20:55:30.497Z,99352.51
2019-01-28T20:57:58.821Z,99358.05
2019-01-28T21:00:28.962Z,99366.33
2019-01-28T21:02:57.314Z,99364.76
2019-01-28T21:05:26.415Z,99367.63
2019-01-28T21:07:55.979Z,99369.90
2019-01-28T21:10:24.274Z,99372.38
2019-01-28T21:12:53.554Z,99371.78
2019-01-28T21:15:22.517Z,99372.12
2019-01-28T21:17:50.862Z,99375.31
2019-01-28T21:20:20.666Z,99381.88
2019-01-28T21:22:49.587Z,99376.64
2019-01-28T21:25:22.501Z,99377.48
2019-01-28T21:27:50.895Z,99375.56
2019-01-28T21:30:22.050Z,99376.94
2019-01-28T21:32:50.488Z,99384.10
2019-01-28T21:35:20.420Z,99383.85
2019-01-28T21:37:50.319Z,99375.56
2019-01-28T21:40:18.563Z,99391.27
2019-01-28T21:42:46.854Z,99388.83
2019-01-28T21:45:15.764Z,99393.13
2019-01-28T21:47:53.208Z,99393.19
2019-01-28T21:50:22.401Z,99391.86
2019-01-28T21:52:50.663Z,99400.16
2019-01-28T21:55:18.922Z,99405.00
2019-01-28T21:57:47.194Z,99415.26
2019-01-28T22:00:15.802Z,99416.72
2019-01-28T22:02:44.066Z,99416.76
2019-01-28T22:05:12.403Z,99418.02
2019-01-28T22:07:40.686Z,99419.06
2019-01-28T22:10:13.833Z,99426.68
2019-01-28T22:12:42.103Z,99421.73
2019-01-28T22:15:17.650Z,99432.13
2019-01-28T22:17:46.073Z,99428.66
2019-01-28T22:20:17.087Z,99430.63
2019-01-28T22:22:45.498Z,99439.05
2019-01-28T22:25:16.083Z,99442.73
2019-01-28T22:27:45.551Z,99448.84
2019-01-28T22:30:21.811Z,99451.58
2019-01-28T22:32:50.144Z,99452.09
2019-01-28T22:35:18.563Z,99461.63
2019-01-28T22:37:46.903Z,99465.08
2019-01-28T22:40:16.694Z,99467.45
2019-01-28T22:42:44.967Z,99468.92
2019-01-28T22:45:15.927Z,99471.41
2019-01-28T22:47:44.378Z,99466.48
2019-01-28T22:50:15.031Z,99467.33
2019-01-28T22:52:43.325Z,99465.03
2019-01-28T22:55:14.422Z,99464.97
2019-01-28T22:57:42.680Z,99458.11
2019-01-28T23:00:21.521Z,99464.73
2019-01-28T23:02:49.789Z,99471.02
2019-01-28T23:05:18.052Z,99469.79
2019-01-28T23:07:46.314Z,99474.19
2019-01-28T23:10:14.639Z,99474.87
2019-01-28T23:12:42.897Z,99472.63
2019-01-28T23:15:11.180Z,99482.61
2019-01-28T23:17:39.439Z,99480.13
2019-01-28T23:20:09.118Z,99486.73
2019-01-28T23:22:37.375Z,99500.31
2019-01-28T23:25:06.591Z,99495.23
2019-01-28T23:27:34.849Z,99498.63
2019-01-28T23:30:03.113Z,99496.47
2019-01-28T23:32:31.376Z,99504.84
2019-01-28T23:34:59.648Z,99501.76
2019-01-28T23:37:27.915Z,99504.52
2019-01-28T23:39:56.177Z,99508.33
2019-01-28T23:42:24.450Z,99512.20
2019-01-28T23:44:52.724Z,99514.14
2019-01-28T23:47:20.993Z,99519.02
2019-01-28T23:49:49.274Z,99524.11
2019-01-28T23:52:24.730Z,99528.40
2019-01-28T23:54:47.535Z,99533.31
2019-01-28T23:57:15.791Z,99538.88
2019-01-28T23:59:44.058Z,99539.39
